createdAt,value
2019-04-21T00:01:34.709Z,101761.58
2019-04-21T00:04:12.463Z,101760.52
2019-04-21T00:06:58.783Z,101760.04
2019-04-21T00:09:26.053Z,101753.72
2019-04-21T00:11:55.613Z,101751.39
2019-04-21T00:14:22.697Z,101754.35
2019-04-21T00:16:49.072Z,101755.02
2019-04-21T00:19:19.078Z,101753.41
2019-04-21T00:21:50.999Z,101752.92
2019-04-21T00:24:28.946Z,101750.06
2019-04-21T00:27:07.022Z,101753.09
2019-04-21T00:32:05.248Z,101750.78
2019-04-21T00:34:21.755Z,101745.25
2019-04-21T00:37:03.102Z,101745.02
2019-04-21T00:39:59.212Z,101728.87
2019-04-21T00:42:14.557Z,101739.82
2019-04-21T00:44:36.359Z,101731.31
2019-04-21T00:47:16.906Z,101729.23
2019-04-21T00:49:53.916Z,101728.05
2019-04-21T00:52:58.117Z,101724.24
2019-04-21T00:55:20.368Z,101721.35
2019-04-21T00:57:44.948Z,101715.15
2019-04-21T01:00:11.918Z,101712.35
2019-04-21T01:05:17.918Z,101712.31
2019-04-21T01:10:09.587Z,101714.47
2019-04-21T01:12:53.218Z,101708.78
2019-04-21T01:15:26.142Z,101708.33
2019-04-21T01:17:51.946Z,101701.04
2019-04-21T01:20:13.229Z,101701.23
2019-04-21T01:22:30.762Z,101702.75
2019-04-21T01:25:09.076Z,101699.80
2019-04-21T01:27:49.404Z,101708.23
2019-04-21T01:30:22.266Z,101707.80
2019-04-21T01:32:57.572Z,101699.34
2019-04-21T01:35:30.104Z,101697.00
2019-04-21T01:38:01.933Z,101696.12
2019-04-21T01:40:41.009Z,101694.33
2019-04-21T01:43:06.141Z,101695.86
2019-04-21T01:45:31.795Z,101689.66
2019-04-21T01:48:03.606Z,101691.30
2019-04-21T01:50:36.288Z,101685.13
2019-04-21T01:53:17.325Z,101683.79
2019-04-21T01:55:54.417Z,101690.20
2019-04-21T01:58:25.482Z,101684.52
2019-04-21T02:01:00.778Z,101685.66
2019-04-21T02:06:18.524Z,101683.41
2019-04-21T02:08:36.494Z,101680.81
2019-04-21T02:13:46.840Z,101671.97
2019-04-21T02:16:20.209Z,101672.52
2019-04-21T02:18:44.436Z,101670.72
2019-04-21T02:21:09.487Z,101668.22
2019-04-21T02:23:54.305Z,101666.69
2019-04-21T02:26:23.077Z,101664.22
2019-04-21T02:28:56.302Z,101666.43
2019-04-21T02:31:37.103Z,101668.56
2019-04-21T02:34:18.446Z,101660.32
2019-04-21T02:39:16.466Z,101655.45
2019-04-21T02:41:45.052Z,101658.95
2019-04-21T02:44:22.480Z,101653.23
2019-04-21T02:46:46.697Z,101649.11
2019-04-21T02:50:04.914Z,101657.45
2019-04-21T02:51:42.051Z,101643.63
2019-04-21T02:56:58.626Z,101643.13
2019-04-21T03:04:53.298Z,101632.95
2019-04-21T03:07:21.602Z,101623.16
2019-04-21T03:09:49.708Z,101623.69
2019-04-21T03:12:22.086Z,101625.67
2019-04-21T03:17:48.796Z,101621.55
2019-04-21T03:20:03.012Z,101615.72
2019-04-21T03:22:32.465Z,101614.45
2019-04-21T03:27:57.362Z,101614.10
2019-04-21T03:30:10.946Z,101618.06
2019-04-21T03:37:37.006Z,101617.90
2019-04-21T03:45:25.333Z,101611.08
2019-04-21T03:47:44.894Z,101608.33
2019-04-21T03:50:22.732Z,101613.80
2019-04-21T03:52:53.703Z,101610.67
2019-04-21T04:01:00.384Z,101603.41
2019-04-21T04:16:19.671Z,101604.75
2019-04-21T04:18:53.766Z,101605.21
2019-04-21T04:21:22.548Z,101597.98
2019-04-21T04:28:56.272Z,101595.27
2019-04-21T04:36:40.507Z,101588.59
2019-04-21T04:39:26.115Z,101586.80
2019-04-21T04:44:30.319Z,101583.13
2019-04-21T04:47:01.842Z,101582.22
2019-04-21T04:49:36.418Z,101584.30
2019-04-21T04:52:10.134Z,101577.41
2019-04-21T04:54:40.927Z,101575.28
2019-04-21T05:04:39.669Z,101585.47
2019-04-21T05:09:30.681Z,101578.83
2019-04-21T05:12:20.992Z,101574.80
2019-04-21T05:14:41.049Z,101582.36
2019-04-21T05:17:03.861Z,101578.72
2019-04-21T05:19:42.833Z,101579.75
2019-04-21T05:22:12.178Z,101575.34
2019-04-21T05:24:30.319Z,101575.97
2019-04-21T05:26:58.465Z,101577.16
2019-04-21T05:29:37.792Z,101568.75
2019-04-21T05:32:17.277Z,101568.36
2019-04-21T05:34:50.406Z,101567.02
2019-04-21T05:37:25.851Z,101567.39
2019-04-21T05:39:52.315Z,101566.13
2019-04-21T05:42:23.823Z,101568.73
2019-04-21T05:47:39.802Z,101566.59
2019-04-21T05:50:06.419Z,101567.07
2019-04-21T05:52:35.311Z,101566.34
2019-04-21T05:55:16.861Z,101558.30
2019-04-21T05:57:47.883Z,101562.37
2019-04-21T06:00:19.671Z,101558.94
2019-04-21T06:02:52.012Z,101564.71
2019-04-21T06:07:53.755Z,101559.67
2019-04-21T06:10:27.427Z,101553.00
2019-04-21T06:12:59.905Z,101554.12
2019-04-21T06:15:41.745Z,101562.84
2019-04-21T06:18:06.403Z,101555.48
2019-04-21T06:20:33.465Z,101555.45
2019-04-21T06:23:04.235Z,101556.11
2019-04-21T06:28:12.167Z,101550.91
2019-04-21T06:30:54.924Z,101545.55
2019-04-21T06:33:10.728Z,101552.33
2019-04-21T06:36:07.790Z,101541.32
2019-04-21T06:38:28.232Z,101552.42
2019-04-21T06:40:50.102Z,101551.75
2019-04-21T06:43:42.051Z,101543.41
2019-04-21T06:45:55.802Z,101555.02
2019-04-21T06:48:28.473Z,101548.36
2019-04-21T06:51:03.170Z,101542.47
2019-04-21T06:53:35.787Z,101538.20
2019-04-21T06:56:02.033Z,101544.73
2019-04-21T06:58:27.839Z,101542.52
2019-04-21T07:01:05.464Z,101546.64
2019-04-21T07:03:38.885Z,101545.55
2019-04-21T07:06:08.120Z,101540.66
2019-04-21T07:08:44.794Z,101537.68
2019-04-21T07:11:12.437Z,101545.24
2019-04-21T07:13:41.583Z,101539.50
2019-04-21T07:16:12.039Z,101537.58
2019-04-21T07:18:54.150Z,101541.77
2019-04-21T07:21:14.127Z,101543.54
2019-04-21T07:23:48.935Z,101541.08
2019-04-21T07:26:23.775Z,101535.27
2019-04-21T07:28:59.795Z,101540.33
2019-04-21T07:31:20.795Z,101532.94
2019-04-21T07:34:02.003Z,101534.92
2019-04-21T07:36:30.510Z,101533.45
2019-04-21T07:38:49.739Z,101540.25
2019-04-21T07:41:15.819Z,101538.13
2019-04-21T07:43:55.255Z,101540.56
2019-04-21T07:46:25.625Z,101542.55
2019-04-21T07:49:07.442Z,101539.70
2019-04-21T07:51:56.538Z,101527.66
2019-04-21T07:54:32.044Z,101536.69
2019-04-21T07:56:39.869Z,101533.38
2019-04-21T07:59:40.889Z,101526.22
2019-04-21T08:01:56.403Z,101529.23
2019-04-21T08:04:49.558Z,101528.77
2019-04-21T08:06:57.156Z,101519.82
2019-04-21T08:09:33.083Z,101518.14
2019-04-21T08:12:01.388Z,101521.06
2019-04-21T08:14:49.430Z,101514.39
2019-04-21T08:17:03.217Z,101521.02
2019-04-21T08:19:33.818Z,101512.78
2019-04-21T08:22:12.657Z,101513.18
2019-04-21T08:24:35.224Z,101499.55
2019-04-21T08:27:14.186Z,101499.70
2019-04-21T08:29:42.096Z,101498.84
2019-04-21T08:34:43.242Z,101495.35
2019-04-21T08:37:15.118Z,101486.27
2019-04-21T08:39:59.408Z,101493.66
2019-04-21T08:42:18.529Z,101489.16
2019-04-21T08:44:50.007Z,101484.70
2019-04-21T08:47:20.428Z,101486.08
2019-04-21T08:49:47.582Z,101492.45
2019-04-21T08:52:36.250Z,101481.56
2019-04-21T08:55:11.149Z,101478.16
2019-04-21T08:58:00.408Z,101477.71
2019-04-21T09:00:32.399Z,101481.70
2019-04-21T09:03:11.730Z,101474.28
2019-04-21T09:05:35.690Z,101467.66
2019-04-21T09:08:10.577Z,101470.75
2019-04-21T09:10:42.227Z,101464.88
2019-04-21T09:13:10.274Z,101461.84
2019-04-21T09:15:41.910Z,101459.59
2019-04-21T09:18:11.967Z,101458.14
2019-04-21T09:23:15.432Z,101456.40
2019-04-21T09:25:53.175Z,101455.13
2019-04-21T09:28:16.720Z,101457.00
2019-04-21T09:30:39.631Z,101449.84
2019-04-21T09:33:05.283Z,101442.14
2019-04-21T09:35:35.812Z,101440.30
2019-04-21T09:38:17.112Z,101442.68
2019-04-21T09:40:42.332Z,101430.27
2019-04-21T09:43:11.375Z,101436.23
2019-04-21T09:45:40.506Z,101434.98
2019-04-21T09:48:16.694Z,101427.86
2019-04-21T09:50:41.530Z,101417.81
2019-04-21T09:53:20.684Z,101418.95
2019-04-21T09:55:50.534Z,101415.23
2019-04-21T09:58:24.217Z,101412.73
2019-04-21T10:00:57.285Z,101399.05
2019-04-21T10:03:17.993Z,101405.17
2019-04-21T10:05:47.695Z,101398.44
2019-04-21T10:08:17.232Z,101390.42
2019-04-21T10:10:46.920Z,101396.36
2019-04-21T10:13:17.129Z,101392.70
2019-04-21T10:15:48.572Z,101384.14
2019-04-21T10:18:22.745Z,101375.13
2019-04-21T10:20:52.220Z,101369.25
2019-04-21T10:23:21.804Z,101367.82
2019-04-21T10:25:52.279Z,101365.51
2019-04-21T10:28:23.000Z,101359.75
2019-04-21T10:30:52.932Z,101352.08
2019-04-21T10:33:22.390Z,101354.01
2019-04-21T10:35:52.981Z,101354.44
2019-04-21T10:38:30.201Z,101350.47
2019-04-21T10:40:53.822Z,101345.48
2019-04-21T10:43:24.365Z,101342.73
2019-04-21T10:45:54.869Z,101337.34
2019-04-21T10:48:25.210Z,101331.14
2019-04-21T10:50:54.995Z,101330.84
2019-04-21T10:53:27.013Z,101329.27
2019-04-21T10:56:10.478Z,101327.40
2019-04-21T10:58:34.046Z,101328.95
2019-04-21T11:01:14.413Z,101320.88
2019-04-21T11:04:00.530Z,101315.31
2019-04-21T11:06:30.882Z,101314.73
2019-04-21T11:09:03.049Z,101312.22
2019-04-21T11:11:32.083Z,101306.40
2019-04-21T11:14:02.445Z,101296.03
2019-04-21T11:16:33.224Z,101287.92
2019-04-21T11:19:03.945Z,101285.70
2019-04-21T11:21:34.630Z,101287.08
2019-04-21T11:24:04.310Z,101287.03
2019-04-21T11:26:33.939Z,101280.50
2019-04-21T11:29:05.091Z,101277.26
2019-04-21T11:31:34.738Z,101272.14
2019-04-21T11:34:05.142Z,101268.90
2019-04-21T11:36:35.306Z,101268.30
2019-04-21T11:39:22.014Z,101252.02
2019-04-21T11:41:39.921Z,101248.98
2019-04-21T11:44:09.875Z,101247.70
2019-04-21T11:46:40.402Z,101247.25
2019-04-21T11:49:10.426Z,101249.12
2019-04-21T11:51:40.775Z,101241.48
2019-04-21T11:54:10.846Z,101240.12
2019-04-21T11:56:40.963Z,101237.33
2019-04-21T11:59:10.533Z,101234.65
2019-04-21T12:01:41.457Z,101237.42
2019-04-21T12:04:11.737Z,101230.97
2019-04-21T12:06:45.419Z,101234.80
2019-04-21T12:09:12.512Z,101228.97
2019-04-21T12:11:43.253Z,101226.03
2019-04-21T12:14:14.118Z,101217.73
2019-04-21T12:16:43.760Z,101215.34
2019-04-21T12:19:14.296Z,101216.27
2019-04-21T12:21:54.563Z,101210.07
2019-04-21T12:24:15.412Z,101201.31
2019-04-21T12:26:46.251Z,101207.13
2019-04-21T12:29:16.673Z,101196.69
2019-04-21T12:32:05.541Z,101196.35
2019-04-21T12:34:36.260Z,101188.45
2019-04-21T12:37:06.680Z,101188.63
2019-04-21T12:39:36.882Z,101179.05
2019-04-21T12:42:06.820Z,101181.56
2019-04-21T12:44:37.153Z,101184.34
2019-04-21T12:47:07.947Z,101171.56
2019-04-21T12:49:38.096Z,101168.78
2019-04-21T12:52:11.435Z,101162.48
2019-04-21T12:54:41.791Z,101153.44
2019-04-21T12:57:11.822Z,101152.41
2019-04-21T12:59:42.530Z,101153.92
2019-04-21T13:02:13.640Z,101143.80
2019-04-21T13:04:43.959Z,101140.91
2019-04-21T13:07:13.623Z,101134.22
2019-04-21T13:09:44.328Z,101130.46
2019-04-21T13:12:15.229Z,101126.48
2019-04-21T13:14:44.826Z,101125.19
2019-04-21T13:17:15.224Z,101117.84
2019-04-21T13:19:45.302Z,101111.97
2019-04-21T13:22:16.068Z,101109.09
2019-04-21T13:24:45.626Z,101104.09
2019-04-21T13:27:15.609Z,101094.10
2019-04-21T13:29:46.233Z,101098.84
2019-04-21T13:32:16.361Z,101092.37
2019-04-21T13:34:46.290Z,101088.98
2019-04-21T13:37:17.554Z,101089.99
2019-04-21T13:40:21.115Z,101081.75
2019-04-21T13:42:39.978Z,101077.61
2019-04-21T13:45:08.229Z,101067.63
2019-04-21T13:47:38.668Z,101073.89
2019-04-21T13:50:11.078Z,101065.53
2019-04-21T13:52:40.813Z,101063.77
2019-04-21T13:55:11.849Z,101065.06
2019-04-21T13:57:41.408Z,101058.27
2019-04-21T14:00:13.061Z,101056.64
2019-04-21T14:02:42.871Z,101058.23
2019-04-21T14:05:15.491Z,101050.41
2019-04-21T14:07:44.149Z,101047.75
2019-04-21T14:10:16.040Z,101042.52
2019-04-21T14:12:46.754Z,101033.39
2019-04-21T14:15:18.074Z,101026.58
2019-04-21T14:17:48.916Z,101022.48
2019-04-21T14:20:19.527Z,101018.87
2019-04-21T14:22:49.685Z,101023.20
2019-04-21T14:25:19.622Z,101019.20
2019-04-21T14:27:51.903Z,101021.69
2019-04-21T14:30:22.771Z,101011.77
2019-04-21T14:32:53.994Z,101012.80
2019-04-21T14:35:25.015Z,101005.72
2019-04-21T14:37:54.719Z,101002.85
2019-04-21T14:40:27.631Z,101006.51
2019-04-21T14:42:56.197Z,101003.15
2019-04-21T14:45:40.697Z,100999.45
2019-04-21T14:48:29.447Z,100997.13
2019-04-21T14:51:04.584Z,100991.08
2019-04-21T14:53:36.071Z,100988.64
2019-04-21T14:56:07.064Z,100987.31
2019-04-21T14:58:37.096Z,100975.33
2019-04-21T15:01:08.315Z,100973.10
2019-04-21T15:03:39.478Z,100972.37
2019-04-21T15:06:09.373Z,100967.20
2019-04-21T15:08:39.495Z,100965.61
2019-04-21T15:11:09.600Z,100961.12
2019-04-21T15:13:39.701Z,100961.19
2019-04-21T15:16:09.295Z,100961.46
2019-04-21T15:18:39.062Z,100961.55
2019-04-21T15:21:08.753Z,100956.05
2019-04-21T15:23:38.367Z,100957.58
2019-04-21T15:26:08.288Z,100947.97
2019-04-21T15:28:39.101Z,100945.92
2019-04-21T15:31:13.445Z,100943.18
2019-04-21T15:33:41.241Z,100946.18
2019-04-21T15:36:11.269Z,100948.05
2019-04-21T15:38:40.843Z,100939.53
2019-04-21T15:41:10.948Z,100931.95
2019-04-21T15:43:42.611Z,100930.62
2019-04-21T15:46:13.054Z,100924.94
2019-04-21T15:48:42.770Z,100925.95
2019-04-21T15:51:13.574Z,100921.73
2019-04-21T15:53:45.817Z,100911.77
2019-04-21T15:56:28.995Z,100915.04
2019-04-21T15:58:58.935Z,100911.22
2019-04-21T16:01:28.334Z,100899.05
2019-04-21T16:04:00.411Z,100896.47
2019-04-21T16:06:29.671Z,100897.00
2019-04-21T16:09:01.050Z,100896.30
2019-04-21T16:11:31.632Z,100891.81
2019-04-21T16:14:01.875Z,100891.22
2019-04-21T16:16:32.691Z,100888.98
2019-04-21T16:19:03.926Z,100888.88
2019-04-21T16:21:38.394Z,100883.59
2019-04-21T16:24:04.794Z,100883.98
2019-04-21T16:26:34.995Z,100876.61
2019-04-21T16:29:05.055Z,100875.22
2019-04-21T16:31:34.691Z,100870.89
2019-04-21T16:34:05.128Z,100868.96
2019-04-21T16:36:35.849Z,100869.56
2019-04-21T16:39:07.641Z,100863.34
2019-04-21T16:41:38.342Z,100859.95
2019-04-21T16:44:09.423Z,100856.95
2019-04-21T16:46:38.937Z,100846.72
2019-04-21T16:49:09.627Z,100855.06
2019-04-21T16:51:40.301Z,100848.73
2019-04-21T16:54:11.448Z,100849.88
2019-04-21T16:56:45.690Z,100851.44
2019-04-21T16:59:16.870Z,100847.72
2019-04-21T17:01:46.842Z,100845.61
2019-04-21T17:04:16.419Z,100840.42
2019-04-21T17:06:47.131Z,100836.22
2019-04-21T17:09:16.849Z,100831.59
2019-04-21T17:11:46.971Z,100829.62
2019-04-21T17:14:37.544Z,100825.50
2019-04-21T17:17:15.652Z,100824.58
2019-04-21T17:19:27.800Z,100821.04
2019-04-21T17:21:52.103Z,100817.23
2019-04-21T17:24:22.190Z,100812.39
2019-04-21T17:26:53.213Z,100807.28
2019-04-21T17:29:22.919Z,100809.23
2019-04-21T17:31:53.199Z,100814.01
2019-04-21T17:34:26.133Z,100807.81
2019-04-21T17:36:55.058Z,100811.39
2019-04-21T17:39:24.928Z,100817.66
2019-04-21T17:42:05.271Z,100802.95
2019-04-21T17:44:25.823Z,100804.64
2019-04-21T17:47:01.416Z,100804.55
2019-04-21T17:49:26.715Z,100803.27
2019-04-21T17:52:19.468Z,100799.31
2019-04-21T17:55:10.273Z,100800.20
2019-04-21T17:57:54.465Z,100798.02
2019-04-21T18:00:53.555Z,100797.50
2019-04-21T18:03:01.899Z,100795.95
2019-04-21T18:05:34.144Z,100795.38
2019-04-21T18:07:54.568Z,100803.15
2019-04-21T18:10:33.948Z,100803.99
2019-04-21T18:12:59.246Z,100803.18
2019-04-21T18:15:37.169Z,100799.50
2019-04-21T18:17:52.473Z,100798.84
2019-04-21T18:20:41.907Z,100801.89
2019-04-21T18:23:44.342Z,100798.56
2019-04-21T18:26:08.116Z,100792.76
2019-04-21T18:28:34.684Z,100798.67
2019-04-21T18:31:06.899Z,100801.73
2019-04-21T18:33:40.491Z,100798.83
2019-04-21T18:36:22.546Z,100803.52
2019-04-21T18:39:04.185Z,100801.08
2019-04-21T18:41:19.574Z,100802.87
2019-04-21T18:47:07.313Z,100809.02
2019-04-21T18:49:17.729Z,100814.86
2019-04-21T18:52:18.143Z,100813.44
2019-04-21T18:54:48.724Z,100808.74
2019-04-21T18:57:17.253Z,100814.53
2019-04-21T18:59:43.067Z,100814.39
2019-04-21T19:02:13.571Z,100814.99
2019-04-21T19:04:42.786Z,100816.22
2019-04-21T19:07:27.550Z,100821.73
2019-04-21T19:15:00.095Z,100823.70
2019-04-21T19:22:38.740Z,100823.24
2019-04-21T19:25:12.905Z,100819.08
2019-04-21T19:27:42.230Z,100826.02
2019-04-21T19:30:20.239Z,100826.20
2019-04-21T19:32:45.445Z,100824.66
2019-04-21T19:35:01.883Z,100816.19
2019-04-21T19:37:40.089Z,100816.35
2019-04-21T19:40:15.907Z,100810.38
2019-04-21T19:42:43.776Z,100814.22
2019-04-21T19:45:22.206Z,100813.05
2019-04-21T19:47:56.528Z,100814.52
2019-04-21T19:50:28.722Z,100809.70
2019-04-21T19:52:54.516Z,100815.63
2019-04-21T19:55:14.115Z,100813.13
2019-04-21T19:57:45.038Z,100809.36
2019-04-21T20:00:15.977Z,100805.55
2019-04-21T20:02:46.368Z,100808.32
2019-04-21T20:05:28.219Z,100804.64
2019-04-21T20:08:05.011Z,100805.66
2019-04-21T20:10:39.678Z,100801.43
2019-04-21T20:13:14.747Z,100803.70
2019-04-21T20:15:41.616Z,100802.95
2019-04-21T20:18:05.979Z,100797.77
2019-04-21T20:20:24.874Z,100794.82
2019-04-21T20:22:56.071Z,100799.70
2019-04-21T20:25:27.236Z,100795.81
2019-04-21T20:28:04.965Z,100792.85
2019-04-21T20:30:42.387Z,100796.41
2019-04-21T20:35:58.704Z,100788.61
2019-04-21T20:38:15.671Z,100788.67
2019-04-21T20:40:41.208Z,100786.06
2019-04-21T20:43:28.960Z,100792.64
2019-04-21T20:46:00.444Z,100790.49
2019-04-21T20:48:17.742Z,100789.21
2019-04-21T20:51:00.564Z,100789.70
2019-04-21T20:53:25.992Z,100787.09
2019-04-21T20:55:52.895Z,100785.36
2019-04-21T20:58:28.102Z,100782.73
2019-04-21T21:01:20.276Z,100779.70
2019-04-21T21:03:34.850Z,100781.02
2019-04-21T21:05:58.572Z,100781.88
2019-04-21T21:08:35.815Z,100777.48
2019-04-21T21:11:00.259Z,100774.89
2019-04-21T21:13:53.758Z,100775.31
2019-04-21T21:16:13.998Z,100767.48
2019-04-21T21:18:56.508Z,100764.42
2019-04-21T21:21:11.423Z,100762.73
2019-04-21T21:23:44.770Z,100764.91
2019-04-21T21:26:16.021Z,100764.91
2019-04-21T21:28:38.978Z,100759.69
2019-04-21T21:31:24.923Z,100760.96
2019-04-21T21:33:57.447Z,100766.19
2019-04-21T21:36:19.635Z,100764.84
2019-04-21T21:38:55.889Z,100759.17
2019-04-21T21:41:14.069Z,100760.44
2019-04-21T21:43:39.167Z,100764.31
2019-04-21T21:46:27.164Z,100761.23
2019-04-21T21:48:53.855Z,100764.22
2019-04-21T21:51:20.522Z,100760.70
2019-04-21T21:53:44.413Z,100759.77
2019-04-21T21:56:14.489Z,100765.38
2019-04-21T21:58:46.210Z,100759.71
2019-04-21T22:01:20.956Z,100758.38
2019-04-21T22:03:52.544Z,100753.98
2019-04-21T22:06:23.376Z,100751.38
2019-04-21T22:08:50.536Z,100758.39
2019-04-21T22:11:20.194Z,100762.36
2019-04-21T22:13:58.816Z,100757.94
2019-04-21T22:16:23.000Z,100757.02
2019-04-21T22:19:14.211Z,100758.75
2019-04-21T22:21:41.534Z,100760.91
2019-04-21T22:24:00.253Z,100757.89
2019-04-21T22:26:27.264Z,100759.97
2019-04-21T22:28:58.152Z,100761.71
2019-04-21T22:31:32.180Z,100766.45
2019-04-21T22:34:05.436Z,100763.34
2019-04-21T22:36:44.422Z,100761.17
2019-04-21T22:39:19.290Z,100759.41
2019-04-21T22:41:39.238Z,100759.35
2019-04-21T22:44:04.886Z,100761.09
2019-04-21T22:46:36.036Z,100754.58
2019-04-21T22:49:09.369Z,100756.81
2019-04-21T22:51:41.521Z,100752.48
2019-04-21T22:54:08.305Z,100751.19
2019-04-21T22:56:50.469Z,100745.97
2019-04-21T22:59:15.024Z,100752.20
2019-04-21T23:01:46.101Z,100747.50
2019-04-21T23:04:12.458Z,100747.62
2019-04-21T23:06:44.303Z,100748.53
2019-04-21T23:09:15.029Z,100748.55
2019-04-21T23:11:49.179Z,100752.05
2019-04-21T23:14:17.538Z,100743.78
2019-04-21T23:16:53.661Z,100743.81
2019-04-21T23:19:34.850Z,100745.52
2019-04-21T23:22:12.125Z,100744.59
2019-04-21T23:24:49.709Z,100738.02
2019-04-21T23:27:09.228Z,100740.98
2019-04-21T23:29:57.344Z,100744.44
2019-04-21T23:32:11.009Z,100746.17
2019-04-21T23:34:32.428Z,100737.92
2019-04-21T23:37:03.220Z,100735.25
2019-04-21T23:39:31.996Z,100731.78
2019-04-21T23:42:01.335Z,100725.26
2019-04-21T23:44:32.924Z,100725.66
2019-04-21T23:47:06.480Z,100723.44
2019-04-21T23:49:42.589Z,100729.47
2019-04-21T23:52:09.981Z,100722.88
2019-04-21T23:54:37.489Z,100721.50
2019-04-21T23:57:14.085Z,100718.37
2019-04-21T23:59:44.722Z,100713.98
